createdAt,value
2023-06-03T00:00:06.277Z,29.29
2023-06-03T00:01:06.596Z,29.29
2023-06-03T00:02:06.494Z,29.28
2023-06-03T00:03:06.516Z,29.30
2023-06-03T00:04:06.662Z,29.26
2023-06-03T00:05:06.693Z,29.30
2023-06-03T00:06:06.641Z,29.29
2023-06-03T00:07:06.703Z,29.30
2023-06-03T00:08:06.748Z,29.30
2023-06-03T00:09:06.812Z,29.30
2023-06-03T00:10:06.867Z,29.29
2023-06-03T00:11:07.267Z,29.27
2023-06-03T00:12:07.018Z,29.34
2023-06-03T00:13:07.061Z,29.32
2023-06-03T00:14:07.151Z,29.30
2023-06-03T00:15:07.158Z,29.33
2023-06-03T00:16:07.300Z,29.34
2023-06-03T00:17:07.285Z,29.33
2023-06-03T00:18:07.424Z,29.35
2023-06-03T00:19:07.427Z,29.34
2023-06-03T00:20:07.707Z,29.33
2023-06-03T00:21:07.701Z,29.32
2023-06-03T00:22:07.588Z,29.33
2023-06-03T00:23:07.658Z,29.33
2023-06-03T00:24:07.715Z,29.34
2023-06-03T00:25:07.792Z,29.35
2023-06-03T00:26:07.830Z,29.32
2023-06-03T00:27:08.005Z,29.35
2023-06-03T00:28:07.951Z,29.32
2023-06-03T00:29:08.013Z,29.30
2023-06-03T00:30:08.098Z,29.37
2023-06-03T00:31:08.209Z,29.38
2023-06-03T00:32:08.250Z,29.37
2023-06-03T00:33:08.322Z,29.33
2023-06-03T00:34:08.455Z,29.37
2023-06-03T00:35:08.386Z,29.38
2023-06-03T00:36:08.449Z,29.40
2023-06-03T00:37:08.531Z,29.38
2023-06-03T00:38:08.597Z,29.39
2023-06-03T00:39:08.647Z,29.43
2023-06-03T00:40:08.722Z,29.39
2023-06-03T00:41:08.784Z,29.42
2023-06-03T00:42:08.849Z,29.45
2023-06-03T00:43:08.914Z,29.45
2023-06-03T00:44:08.956Z,29.47
2023-06-03T00:45:09.015Z,29.46
2023-06-03T00:46:09.111Z,29.46
2023-06-03T00:47:09.138Z,29.50
2023-06-03T00:48:09.281Z,29.47
2023-06-03T00:49:09.283Z,29.48
2023-06-03T00:50:09.412Z,29.48
2023-06-03T00:51:09.388Z,29.48
2023-06-03T00:52:09.478Z,29.48
2023-06-03T00:53:09.538Z,29.51
2023-06-03T00:54:09.591Z,29.46
2023-06-03T00:55:09.635Z,29.46
2023-06-03T00:56:09.713Z,29.48
2023-06-03T00:57:09.748Z,29.50
2023-06-03T00:58:09.847Z,29.46
2023-06-03T00:59:09.888Z,29.46
2023-06-03T01:00:09.973Z,29.47
2023-06-03T01:01:10.043Z,29.52
2023-06-03T01:02:10.107Z,29.47
2023-06-03T01:03:10.195Z,29.50
2023-06-03T01:04:10.202Z,29.48
2023-06-03T01:05:10.248Z,29.51
2023-06-03T01:06:10.323Z,29.48
2023-06-03T01:07:10.373Z,29.47
2023-06-03T01:08:10.412Z,29.52
2023-06-03T01:09:10.463Z,29.52
2023-06-03T01:10:10.522Z,29.56
2023-06-03T01:11:10.594Z,29.53
2023-06-03T01:12:10.774Z,29.55
2023-06-03T01:13:10.700Z,29.53
2023-06-03T01:14:10.784Z,29.57
2023-06-03T01:15:10.826Z,29.55
2023-06-03T01:16:10.903Z,29.53
2023-06-03T01:17:11.201Z,29.58
2023-06-03T01:18:11.001Z,29.51
2023-06-03T01:19:11.066Z,29.53
2023-06-03T01:20:11.105Z,29.55
2023-06-03T01:21:11.166Z,29.59
2023-06-03T01:22:11.236Z,29.49
2023-06-03T01:23:11.287Z,29.53
2023-06-03T01:24:11.327Z,29.55
2023-06-03T01:25:11.389Z,29.49
2023-06-03T01:26:11.461Z,29.51
2023-06-03T01:27:11.521Z,29.52
2023-06-03T01:28:11.572Z,29.44
2023-06-03T01:29:11.645Z,29.55
2023-06-03T01:30:11.706Z,29.52
2023-06-03T01:31:11.784Z,29.45
2023-06-03T01:32:11.779Z,29.48
2023-06-03T01:33:11.850Z,29.48
2023-06-03T01:34:11.878Z,29.52
2023-06-03T01:35:12.004Z,29.48
2023-06-03T01:36:11.964Z,29.46
2023-06-03T01:37:12.362Z,29.51
2023-06-03T01:38:12.065Z,29.47
2023-06-03T01:39:12.125Z,29.52
2023-06-03T01:40:12.162Z,29.49
2023-06-03T01:41:12.185Z,29.52
2023-06-03T01:42:12.251Z,29.55
2023-06-03T01:43:12.276Z,29.50
2023-06-03T01:44:12.328Z,29.52
2023-06-03T01:45:12.359Z,29.52
2023-06-03T01:46:12.444Z,29.46
2023-06-03T01:47:12.533Z,29.52
2023-06-03T01:48:12.502Z,29.52
2023-06-03T01:49:12.531Z,29.52
2023-06-03T01:50:12.579Z,29.49
2023-06-03T01:51:12.616Z,29.48
2023-06-03T01:52:12.656Z,29.44
2023-06-03T01:53:12.722Z,29.53
2023-06-03T01:54:12.779Z,29.52
2023-06-03T01:55:12.801Z,29.45
2023-06-03T01:56:12.856Z,29.55
2023-06-03T01:57:12.975Z,29.56
2023-06-03T01:58:12.933Z,29.49
2023-06-03T01:59:12.984Z,29.57
2023-06-03T02:00:13.036Z,29.50
2023-06-03T02:01:13.088Z,29.51
2023-06-03T02:02:13.173Z,29.56
2023-06-03T02:03:13.230Z,29.53
2023-06-03T02:04:13.199Z,29.54
2023-06-03T02:05:13.256Z,29.53
2023-06-03T02:06:13.310Z,29.52
2023-06-03T02:07:13.349Z,29.56
2023-06-03T02:08:13.385Z,29.54
2023-06-03T02:09:13.434Z,29.54
2023-06-03T02:10:13.491Z,29.57
2023-06-03T02:11:13.508Z,29.57
2023-06-03T02:12:13.572Z,29.58
2023-06-03T02:13:13.600Z,29.58
2023-06-03T02:14:13.660Z,29.55
2023-06-03T02:15:13.690Z,29.57
2023-06-03T02:16:13.718Z,29.54
2023-06-03T02:17:13.750Z,29.53
2023-06-03T02:18:13.779Z,29.54
2023-06-03T02:19:13.871Z,29.55
2023-06-03T02:20:13.808Z,29.58
2023-06-03T02:21:13.836Z,29.56
2023-06-03T02:22:13.856Z,29.53
2023-06-03T02:23:13.965Z,29.57
2023-06-03T02:24:13.928Z,29.54
2023-06-03T02:25:13.939Z,29.53
2023-06-03T02:26:13.968Z,29.57
2023-06-03T02:27:14.024Z,29.54
2023-06-03T02:28:14.036Z,29.51
2023-06-03T02:29:14.038Z,29.55
2023-06-03T02:30:14.100Z,29.49
2023-06-03T02:31:14.094Z,29.51
2023-06-03T02:32:14.189Z,29.50
2023-06-03T02:33:14.140Z,29.47
2023-06-03T02:34:14.184Z,29.46
2023-06-03T02:35:14.195Z,29.46
2023-06-03T02:36:14.241Z,29.44
2023-06-03T02:37:14.279Z,29.44
2023-06-03T02:38:14.289Z,29.49
2023-06-03T02:39:14.305Z,29.43
2023-06-03T02:40:14.337Z,29.38
2023-06-03T02:41:14.434Z,29.42
2023-06-03T02:42:14.353Z,29.43
2023-06-03T02:43:14.367Z,29.39
2023-06-03T02:44:14.388Z,29.37
2023-06-03T02:45:14.390Z,29.38
2023-06-03T02:46:14.416Z,29.38
2023-06-03T02:47:14.414Z,29.35
2023-06-03T02:48:14.409Z,29.35
2023-06-03T02:49:14.476Z,29.33
2023-06-03T02:50:14.468Z,29.32
2023-06-03T02:51:14.477Z,29.34
2023-06-03T02:52:14.498Z,29.35
2023-06-03T02:53:14.545Z,29.34
2023-06-03T02:54:14.505Z,29.38
2023-06-03T02:55:14.497Z,29.38
2023-06-03T02:56:14.512Z,29.42
2023-06-03T02:57:14.524Z,29.40
2023-06-03T02:58:14.511Z,29.38
2023-06-03T02:59:14.531Z,29.38
2023-06-03T03:00:14.541Z,29.38
2023-06-03T03:01:14.574Z,29.38
2023-06-03T03:02:14.556Z,29.39
2023-06-03T03:03:14.719Z,29.36
2023-06-03T03:04:14.539Z,29.34
2023-06-03T03:05:14.547Z,29.37
2023-06-03T03:06:14.517Z,29.35
2023-06-03T03:07:14.520Z,29.38
2023-06-03T03:08:14.517Z,29.38
2023-06-03T03:09:14.534Z,29.37
2023-06-03T03:10:14.557Z,29.38
2023-06-03T03:11:14.558Z,29.32
2023-06-03T03:12:14.572Z,29.32
2023-06-03T03:13:14.563Z,29.34
2023-06-03T03:14:14.572Z,29.32
2023-06-03T03:15:14.570Z,29.35
2023-06-03T03:16:14.569Z,29.31
2023-06-03T03:17:14.574Z,29.31
2023-06-03T03:18:14.557Z,29.30
2023-06-03T03:19:14.558Z,29.36
2023-06-03T03:20:14.584Z,29.34
2023-06-03T03:21:14.584Z,29.32
2023-06-03T03:22:14.572Z,29.32
2023-06-03T03:23:14.683Z,29.31
2023-06-03T03:24:14.600Z,29.29
2023-06-03T03:25:14.645Z,29.30
2023-06-03T03:26:14.703Z,29.27
2023-06-03T03:27:14.637Z,29.27
2023-06-03T03:28:14.609Z,29.28
2023-06-03T03:29:14.622Z,29.21
2023-06-03T03:30:14.641Z,29.28
2023-06-03T03:31:14.627Z,29.24
2023-06-03T03:32:14.615Z,29.27
2023-06-03T03:33:14.589Z,29.26
2023-06-03T03:34:14.597Z,29.27
2023-06-03T03:35:14.588Z,29.26
2023-06-03T03:36:14.587Z,29.27
2023-06-03T03:37:14.620Z,29.27
2023-06-03T03:38:14.596Z,29.27
2023-06-03T03:39:14.568Z,29.30
2023-06-03T03:40:14.562Z,29.30
2023-06-03T03:41:14.579Z,29.31
2023-06-03T03:42:14.567Z,29.30
2023-06-03T03:43:14.549Z,29.35
2023-06-03T03:44:14.538Z,29.34
2023-06-03T03:45:14.553Z,29.33
2023-06-03T03:46:14.580Z,29.37
2023-06-03T03:47:14.525Z,29.35
2023-06-03T03:48:14.623Z,29.33
2023-06-03T03:49:14.516Z,29.34
2023-06-03T03:50:14.517Z,29.31
2023-06-03T03:51:14.520Z,29.36
2023-06-03T03:52:16.388Z,29.36
2023-06-03T03:53:15.519Z,29.37
2023-06-03T03:54:14.487Z,29.36
2023-06-03T03:55:14.480Z,29.35
2023-06-03T03:56:14.489Z,29.36
2023-06-03T03:57:14.687Z,29.36
2023-06-03T03:58:14.476Z,29.35
2023-06-03T03:59:14.452Z,29.34
2023-06-03T04:00:14.445Z,29.36
2023-06-03T04:01:14.458Z,29.31
2023-06-03T04:02:14.480Z,29.32
2023-06-03T04:03:14.476Z,29.34
2023-06-03T04:04:14.587Z,29.35
2023-06-03T04:05:14.429Z,29.31
2023-06-03T04:06:14.411Z,29.35
2023-06-03T04:07:14.405Z,29.32
2023-06-03T04:08:14.409Z,29.33
2023-06-03T04:09:14.412Z,29.36
2023-06-03T04:10:14.383Z,29.34
2023-06-03T04:11:14.396Z,29.35
2023-06-03T04:12:14.377Z,29.32
2023-06-03T04:13:14.361Z,29.35
2023-06-03T04:14:14.369Z,29.34
2023-06-03T04:15:14.367Z,29.36
2023-06-03T04:16:14.375Z,29.36
2023-06-03T04:17:14.355Z,29.36
2023-06-03T04:18:14.350Z,29.35
2023-06-03T04:19:14.355Z,29.37
2023-06-03T04:20:14.326Z,29.32
2023-06-03T04:21:14.326Z,29.32
2023-06-03T04:22:14.326Z,29.36
2023-06-03T04:23:14.340Z,29.37
2023-06-03T04:24:14.293Z,29.31
2023-06-03T04:25:14.302Z,29.31
2023-06-03T04:26:14.294Z,29.34
2023-06-03T04:27:14.305Z,29.34
2023-06-03T04:28:14.287Z,29.30
2023-06-03T04:29:14.278Z,29.32
2023-06-03T04:30:14.254Z,29.31
2023-06-03T04:31:14.270Z,29.28
2023-06-03T04:32:14.263Z,29.27
2023-06-03T04:33:14.257Z,29.27
2023-06-03T04:34:14.246Z,29.27
2023-06-03T04:35:14.243Z,29.31
2023-06-03T04:36:14.219Z,29.30
2023-06-03T04:37:14.212Z,29.35
2023-06-03T04:38:14.204Z,29.30
2023-06-03T04:39:14.199Z,29.28
2023-06-03T04:40:14.199Z,29.32
2023-06-03T04:41:14.188Z,29.27
2023-06-03T04:42:14.192Z,29.31
2023-06-03T04:43:14.178Z,29.31
2023-06-03T04:44:14.188Z,29.31
2023-06-03T04:45:14.180Z,29.29
2023-06-03T04:46:14.206Z,29.20
2023-06-03T04:47:14.154Z,29.16
2023-06-03T04:48:14.174Z,29.15
2023-06-03T04:49:14.157Z,29.06
2023-06-03T04:50:14.142Z,29.01
2023-06-03T04:51:14.137Z,28.99
2023-06-03T04:52:14.126Z,29.00
2023-06-03T04:53:14.127Z,28.97
2023-06-03T04:54:14.169Z,28.96
2023-06-03T04:55:14.222Z,28.91
2023-06-03T04:56:14.291Z,28.87
2023-06-03T04:57:14.335Z,28.85
2023-06-03T04:58:14.407Z,28.79
2023-06-03T04:59:14.450Z,28.80
2023-06-03T05:00:14.483Z,28.78
2023-06-03T05:01:14.542Z,28.78
2023-06-03T05:02:14.635Z,28.79
2023-06-03T05:03:17.131Z,28.72
2023-06-03T05:04:14.671Z,28.72
2023-06-03T05:05:14.613Z,28.72
2023-06-03T05:06:14.613Z,28.71
2023-06-03T05:07:14.614Z,28.69
2023-06-03T05:08:14.585Z,28.66
2023-06-03T05:09:14.580Z,28.68
2023-06-03T05:10:14.596Z,28.63
2023-06-03T05:11:14.580Z,28.66
2023-06-03T05:12:14.581Z,28.62
2023-06-03T05:13:15.157Z,28.57
2023-06-03T05:14:14.557Z,28.53
2023-06-03T05:15:14.564Z,28.56
2023-06-03T05:16:14.572Z,28.51
2023-06-03T05:17:14.548Z,28.53
2023-06-03T05:18:14.525Z,28.54
2023-06-03T05:19:14.520Z,28.45
2023-06-03T05:20:14.533Z,28.45
2023-06-03T05:21:14.529Z,28.41
2023-06-03T05:22:14.503Z,28.44
2023-06-03T05:23:14.520Z,28.36
2023-06-03T05:24:14.515Z,28.40
2023-06-03T05:25:14.493Z,28.38
2023-06-03T05:26:14.500Z,28.38
2023-06-03T05:27:14.464Z,28.35
2023-06-03T05:28:14.481Z,28.30
2023-06-03T05:29:14.480Z,28.32
2023-06-03T05:30:14.467Z,28.32
2023-06-03T05:31:14.504Z,28.28
2023-06-03T05:32:14.458Z,28.28
2023-06-03T05:33:14.527Z,28.23
2023-06-03T05:34:14.443Z,28.22
2023-06-03T05:35:14.436Z,28.23
2023-06-03T05:36:14.414Z,28.22
2023-06-03T05:37:14.514Z,28.19
2023-06-03T05:38:14.414Z,28.16
2023-06-03T05:39:14.408Z,28.18
2023-06-03T05:40:14.397Z,28.13
2023-06-03T05:41:14.378Z,28.16
2023-06-03T05:42:14.393Z,28.22
2023-06-03T05:43:14.381Z,28.16
2023-06-03T05:44:14.358Z,28.07
2023-06-03T05:45:14.354Z,28.18
2023-06-03T05:46:14.392Z,28.11
2023-06-03T05:47:14.342Z,28.11
2023-06-03T05:48:14.357Z,28.07
2023-06-03T05:49:14.328Z,28.11
2023-06-03T05:50:14.353Z,28.11
2023-06-03T05:51:14.326Z,28.09
2023-06-03T05:52:14.309Z,28.14
2023-06-03T05:53:14.318Z,28.13
2023-06-03T05:54:14.294Z,28.09
2023-06-03T05:55:14.281Z,28.13
2023-06-03T05:56:14.292Z,28.16
2023-06-03T05:57:14.273Z,28.06
2023-06-03T05:58:14.265Z,28.13
2023-06-03T05:59:14.280Z,28.13
2023-06-03T06:00:14.271Z,28.16
2023-06-03T06:01:14.251Z,28.12
2023-06-03T06:02:14.287Z,28.18
2023-06-03T06:03:14.464Z,28.16
2023-06-03T06:04:14.282Z,28.15
2023-06-03T06:05:14.220Z,28.13
2023-06-03T06:06:14.236Z,28.19
2023-06-03T06:07:14.227Z,28.19
2023-06-03T06:08:14.221Z,28.12
2023-06-03T06:09:14.194Z,28.20
2023-06-03T06:10:14.186Z,28.16
2023-06-03T06:11:14.189Z,28.20
2023-06-03T06:12:14.190Z,28.20
2023-06-03T06:13:14.166Z,28.19
2023-06-03T06:14:14.165Z,28.19
2023-06-03T06:15:14.201Z,28.18
2023-06-03T06:16:14.241Z,28.23
2023-06-03T06:17:14.164Z,28.23
2023-06-03T06:18:14.149Z,28.25
2023-06-03T06:19:14.165Z,28.23
2023-06-03T06:20:14.173Z,28.27
2023-06-03T06:21:14.243Z,28.25
2023-06-03T06:22:14.312Z,28.30
2023-06-03T06:23:14.423Z,28.32
2023-06-03T06:24:14.466Z,28.31
2023-06-03T06:25:14.500Z,28.31
2023-06-03T06:26:14.559Z,28.31
2023-06-03T06:27:14.614Z,28.29
2023-06-03T06:28:14.680Z,28.30
2023-06-03T06:29:14.748Z,28.31
2023-06-03T06:30:14.787Z,28.29
2023-06-03T06:31:15.058Z,28.35
2023-06-03T06:32:14.940Z,28.29
2023-06-03T06:33:14.972Z,28.33
2023-06-03T06:34:15.015Z,28.30
2023-06-03T06:35:15.078Z,28.34
2023-06-03T06:36:15.145Z,28.33
2023-06-03T06:37:15.209Z,28.36
2023-06-03T06:38:15.244Z,28.39
2023-06-03T06:39:15.302Z,28.42
2023-06-03T06:40:15.359Z,28.38
2023-06-03T06:41:15.418Z,28.39
2023-06-03T06:42:15.474Z,28.45
2023-06-03T06:43:15.522Z,28.43
2023-06-03T06:44:15.568Z,28.44
2023-06-03T06:45:15.613Z,28.43
2023-06-03T06:46:15.715Z,28.52
2023-06-03T06:47:15.729Z,28.50
2023-06-03T06:48:15.772Z,28.43
2023-06-03T06:49:15.802Z,28.51
2023-06-03T06:50:15.891Z,28.53
2023-06-03T06:51:15.894Z,28.50
2023-06-03T06:52:15.975Z,28.54
2023-06-03T06:53:15.985Z,28.50
2023-06-03T06:54:16.048Z,28.52
2023-06-03T06:55:16.077Z,28.58
2023-06-03T06:56:16.135Z,28.54
2023-06-03T06:57:16.167Z,28.53
2023-06-03T06:58:16.206Z,28.52
2023-06-03T06:59:16.257Z,28.53
2023-06-03T07:00:16.295Z,28.51
2023-06-03T07:01:16.370Z,28.51
2023-06-03T07:02:16.387Z,28.57
2023-06-03T07:03:16.478Z,28.55
2023-06-03T07:04:16.450Z,28.58
2023-06-03T07:05:17.988Z,28.60
2023-06-03T07:06:16.536Z,28.49
2023-06-03T07:07:16.559Z,28.49
2023-06-03T07:08:16.583Z,28.57
2023-06-03T07:09:16.621Z,28.53
2023-06-03T07:10:16.644Z,28.51
2023-06-03T07:11:16.692Z,28.52
2023-06-03T07:12:16.733Z,28.53
2023-06-03T07:13:16.747Z,28.53
2023-06-03T07:14:16.820Z,28.52
2023-06-03T07:15:16.828Z,28.48
2023-06-03T07:16:16.914Z,28.52
2023-06-03T07:17:16.912Z,28.48
2023-06-03T07:18:16.919Z,28.51
2023-06-03T07:19:16.954Z,28.49
2023-06-03T07:20:16.977Z,28.51
2023-06-03T07:21:17.025Z,28.49
2023-06-03T07:22:17.049Z,28.46
2023-06-03T07:23:17.085Z,28.45
2023-06-03T07:24:17.108Z,28.47
2023-06-03T07:25:17.144Z,28.46
2023-06-03T07:26:17.164Z,28.47
2023-06-03T07:27:17.208Z,28.44
2023-06-03T07:28:17.236Z,28.45
2023-06-03T07:29:17.273Z,28.50
2023-06-03T07:30:17.300Z,28.49
2023-06-03T07:31:17.374Z,28.49
2023-06-03T07:32:17.376Z,28.46
2023-06-03T07:33:17.398Z,28.46
2023-06-03T07:34:17.424Z,28.41
2023-06-03T07:35:17.449Z,28.45
2023-06-03T07:36:17.924Z,28.47
2023-06-03T07:37:17.517Z,28.47
2023-06-03T07:38:17.546Z,28.44
2023-06-03T07:39:17.580Z,28.44
2023-06-03T07:40:17.641Z,28.46
2023-06-03T07:41:17.653Z,28.40
2023-06-03T07:42:17.695Z,28.45
2023-06-03T07:43:17.713Z,28.41
2023-06-03T07:44:17.737Z,28.44
2023-06-03T07:45:17.755Z,28.47
2023-06-03T07:46:17.778Z,28.46
2023-06-03T07:47:17.818Z,28.46
2023-06-03T07:48:17.840Z,28.45
2023-06-03T07:49:17.875Z,28.50
2023-06-03T07:50:17.902Z,28.44
2023-06-03T07:51:17.930Z,28.47
2023-06-03T07:52:17.981Z,28.54
2023-06-03T07:53:17.982Z,28.52
2023-06-03T07:54:18.022Z,28.54
2023-06-03T07:55:18.049Z,28.47
2023-06-03T07:56:18.055Z,28.50
2023-06-03T07:57:18.114Z,28.50
2023-06-03T07:58:18.096Z,28.49
2023-06-03T07:59:18.135Z,28.52
2023-06-03T08:00:18.147Z,28.46
2023-06-03T08:01:18.174Z,28.48
2023-06-03T08:02:18.259Z,28.45
2023-06-03T08:03:18.257Z,28.45
2023-06-03T08:04:18.243Z,28.44
2023-06-03T08:05:18.279Z,28.41
2023-06-03T08:06:18.302Z,28.45
2023-06-03T08:07:18.399Z,28.45
2023-06-03T08:08:18.343Z,28.42
2023-06-03T08:09:18.361Z,28.44
2023-06-03T08:10:18.376Z,28.46
2023-06-03T08:11:18.401Z,28.42
2023-06-03T08:12:18.431Z,28.41
2023-06-03T08:13:18.452Z,28.44
2023-06-03T08:14:18.462Z,28.40
2023-06-03T08:15:18.500Z,28.40
2023-06-03T08:16:18.539Z,28.36
2023-06-03T08:17:18.545Z,28.37
2023-06-03T08:18:18.580Z,28.32
2023-06-03T08:19:18.610Z,28.33
2023-06-03T08:20:18.627Z,28.34
2023-06-03T08:21:18.649Z,28.34
2023-06-03T08:22:18.690Z,28.31
2023-06-03T08:23:18.719Z,28.32
2023-06-03T08:24:18.743Z,28.28
2023-06-03T08:25:20.724Z,28.28
2023-06-03T08:26:18.793Z,28.27
2023-06-03T08:27:18.822Z,28.26
2023-06-03T08:28:18.836Z,28.23
2023-06-03T08:29:18.856Z,28.18
2023-06-03T08:30:18.895Z,28.16
2023-06-03T08:31:18.942Z,28.16
2023-06-03T08:32:18.996Z,28.12
2023-06-03T08:33:18.969Z,28.14
2023-06-03T08:34:19.004Z,28.10
2023-06-03T08:35:19.037Z,28.12
2023-06-03T08:36:19.076Z,28.10
2023-06-03T08:37:19.106Z,28.11
2023-06-03T08:38:19.136Z,28.10
2023-06-03T08:39:19.168Z,28.05
2023-06-03T08:40:19.315Z,28.06
2023-06-03T08:41:19.241Z,28.10
2023-06-03T08:42:19.268Z,28.03
2023-06-03T08:43:19.306Z,28.04
2023-06-03T08:44:19.334Z,28.07
2023-06-03T08:45:19.354Z,28.01
2023-06-03T08:46:19.426Z,28.09
2023-06-03T08:47:19.437Z,28.02
2023-06-03T08:48:19.445Z,27.99
2023-06-03T08:49:19.475Z,28.03
2023-06-03T08:50:19.536Z,28.03
2023-06-03T08:51:19.560Z,28.07
2023-06-03T08:52:19.575Z,28.01
2023-06-03T08:53:19.633Z,28.02
2023-06-03T08:54:19.669Z,27.97
2023-06-03T08:55:19.685Z,27.93
2023-06-03T08:56:19.741Z,27.91
2023-06-03T08:57:19.775Z,27.94
2023-06-03T08:58:20.220Z,27.93
2023-06-03T08:59:19.840Z,27.97
2023-06-03T09:00:19.981Z,27.94
2023-06-03T09:01:19.953Z,27.88
2023-06-03T09:02:19.969Z,27.94
2023-06-03T09:03:20.028Z,27.91
2023-06-03T09:04:20.083Z,27.95
2023-06-03T09:05:20.069Z,27.91
2023-06-03T09:06:20.118Z,27.90
2023-06-03T09:07:20.140Z,27.94
2023-06-03T09:08:20.185Z,27.93
2023-06-03T09:09:20.227Z,27.90
2023-06-03T09:10:20.292Z,27.91
2023-06-03T09:11:20.299Z,27.91
2023-06-03T09:12:20.329Z,27.88
2023-06-03T09:13:20.375Z,27.92
2023-06-03T09:14:20.428Z,27.91
2023-06-03T09:15:20.450Z,27.88
2023-06-03T09:16:20.532Z,27.86
2023-06-03T09:17:20.565Z,27.91
2023-06-03T09:18:20.574Z,27.90
2023-06-03T09:19:20.612Z,27.86
2023-06-03T09:20:20.673Z,27.89
2023-06-03T09:21:20.698Z,27.88
2023-06-03T09:22:20.726Z,27.90
2023-06-03T09:23:20.796Z,27.91
2023-06-03T09:24:20.824Z,27.91
2023-06-03T09:25:20.883Z,27.91
2023-06-03T09:26:20.901Z,27.91
2023-06-03T09:27:20.945Z,27.89
2023-06-03T09:28:20.987Z,27.91
2023-06-03T09:29:21.102Z,27.88
2023-06-03T09:30:21.091Z,27.84
2023-06-03T09:31:21.186Z,27.85
2023-06-03T09:32:21.157Z,27.85
2023-06-03T09:33:21.191Z,27.85
2023-06-03T09:34:21.212Z,27.85
2023-06-03T09:35:21.288Z,27.85
2023-06-03T09:37:21.367Z,27.88
2023-06-03T09:38:21.407Z,27.90
2023-06-03T09:39:21.435Z,27.88
2023-06-03T09:40:21.494Z,27.83
2023-06-03T09:41:21.533Z,27.90
2023-06-03T09:42:21.588Z,27.85
2023-06-03T09:43:21.631Z,27.84
2023-06-03T09:44:21.679Z,27.80
2023-06-03T09:45:21.709Z,27.88
2023-06-03T09:46:21.784Z,27.92
2023-06-03T09:47:21.953Z,27.88
2023-06-03T09:48:21.851Z,27.85
2023-06-03T09:49:33.525Z,27.85
2023-06-03T09:50:22.875Z,27.85
2023-06-03T09:51:21.863Z,27.81
2023-06-03T09:52:21.890Z,27.83
2023-06-03T09:53:21.893Z,27.82
2023-06-03T09:54:21.865Z,27.89
2023-06-03T09:55:21.852Z,27.82
2023-06-03T09:56:21.833Z,27.91
2023-06-03T09:57:21.852Z,27.84
2023-06-03T09:58:21.829Z,27.81
2023-06-03T09:59:21.834Z,27.84
2023-06-03T10:00:21.812Z,27.85
2023-06-03T10:01:21.875Z,27.86
2023-06-03T10:02:21.943Z,27.85
2023-06-03T10:03:21.989Z,27.89
2023-06-03T10:04:21.976Z,27.86
2023-06-03T10:05:22.021Z,27.85
2023-06-03T10:06:22.083Z,27.88
2023-06-03T10:07:22.131Z,27.86
2023-06-03T10:08:22.175Z,27.81
2023-06-03T10:09:22.225Z,27.94
2023-06-03T10:10:22.282Z,27.90
2023-06-03T10:11:22.349Z,27.89
2023-06-03T10:12:22.378Z,27.91
2023-06-03T10:13:22.458Z,27.91
2023-06-03T10:14:22.490Z,27.94
2023-06-03T10:15:22.529Z,27.88
2023-06-03T10:16:22.630Z,27.89
2023-06-03T10:17:22.643Z,27.91
2023-06-03T10:18:22.705Z,27.93
2023-06-03T10:19:22.758Z,27.91
2023-06-03T10:20:22.788Z,27.91
2023-06-03T10:21:22.843Z,27.93
2023-06-03T10:22:22.895Z,27.93
2023-06-03T10:23:22.959Z,27.91
2023-06-03T10:24:23.005Z,27.95
2023-06-03T10:25:23.074Z,27.90
2023-06-03T10:26:23.121Z,27.95
2023-06-03T10:27:23.172Z,27.94
2023-06-03T10:28:23.251Z,27.91
2023-06-03T10:29:23.284Z,27.97
2023-06-03T10:30:23.371Z,27.91
2023-06-03T10:31:23.513Z,27.94
2023-06-03T10:32:23.525Z,27.92
2023-06-03T10:33:23.522Z,27.94
2023-06-03T10:34:23.588Z,27.95
2023-06-03T10:35:23.631Z,27.95
2023-06-03T10:36:23.691Z,28.02
2023-06-03T10:37:23.747Z,27.96
2023-06-03T10:38:23.796Z,27.97
2023-06-03T10:39:23.859Z,27.96
2023-06-03T10:40:23.912Z,28.01
2023-06-03T10:41:23.969Z,28.01
2023-06-03T10:42:24.065Z,27.96
2023-06-03T10:43:24.120Z,28.02
2023-06-03T10:44:24.168Z,28.03
2023-06-03T10:45:24.221Z,28.01
2023-06-03T10:46:24.313Z,28.03
2023-06-03T10:47:24.369Z,28.00
2023-06-03T10:48:24.404Z,27.99
2023-06-03T10:49:24.452Z,28.03
2023-06-03T10:50:24.512Z,28.03
2023-06-03T10:51:24.641Z,28.07
2023-06-03T10:52:24.646Z,28.02
2023-06-03T10:53:24.681Z,28.06
2023-06-03T10:54:24.751Z,28.04
2023-06-03T10:55:24.866Z,28.06
2023-06-03T10:56:24.855Z,28.10
2023-06-03T10:57:24.918Z,28.11
2023-06-03T10:58:24.988Z,28.06
2023-06-03T10:59:25.031Z,28.04
2023-06-03T11:00:25.098Z,28.04
2023-06-03T11:01:25.171Z,28.09
2023-06-03T11:02:25.253Z,28.11
2023-06-03T11:03:25.385Z,28.09
2023-06-03T11:04:25.347Z,28.11
2023-06-03T11:05:25.404Z,28.13
2023-06-03T11:06:25.447Z,28.12
2023-06-03T11:07:25.520Z,28.12
2023-06-03T11:08:25.588Z,28.08
2023-06-03T11:09:25.644Z,28.11
2023-06-03T11:10:25.700Z,28.13
2023-06-03T11:11:25.758Z,28.11
2023-06-03T11:12:25.803Z,28.14
2023-06-03T11:13:25.882Z,28.13
2023-06-03T11:14:26.135Z,28.16
2023-06-03T11:15:26.001Z,28.17
2023-06-03T11:16:26.103Z,28.14
2023-06-03T11:17:26.157Z,28.16
2023-06-03T11:18:26.184Z,28.13
2023-06-03T11:19:26.249Z,28.23
2023-06-03T11:20:26.299Z,28.16
2023-06-03T11:21:26.357Z,28.18
2023-06-03T11:22:26.400Z,28.18
2023-06-03T11:23:26.467Z,28.17
2023-06-03T11:24:26.522Z,28.19
2023-06-03T11:25:26.582Z,28.14
2023-06-03T11:26:26.640Z,28.20
2023-06-03T11:27:26.711Z,28.21
2023-06-03T11:28:26.782Z,28.24
2023-06-03T11:29:26.821Z,28.20
2023-06-03T11:30:26.893Z,28.14
2023-06-03T11:31:27.009Z,28.18
2023-06-03T11:32:27.303Z,28.28
2023-06-03T11:33:27.076Z,28.21
2023-06-03T11:34:27.139Z,28.22
2023-06-03T11:35:27.204Z,28.25
2023-06-03T11:36:27.245Z,28.24
2023-06-03T11:37:27.325Z,28.22
2023-06-03T11:38:27.379Z,28.21
2023-06-03T11:39:27.445Z,28.22
2023-06-03T11:40:27.499Z,28.21
2023-06-03T11:41:27.544Z,28.22
2023-06-03T11:42:27.609Z,28.25
2023-06-03T11:43:27.674Z,28.20
2023-06-03T11:44:29.451Z,28.26
2023-06-03T11:45:27.799Z,28.24
2023-06-03T11:46:27.862Z,28.22
2023-06-03T11:47:27.948Z,28.25
2023-06-03T11:48:28.102Z,28.25
2023-06-03T11:49:28.061Z,28.22
2023-06-03T11:50:28.120Z,28.26
2023-06-03T11:51:28.182Z,28.31
2023-06-03T11:52:28.245Z,28.31
2023-06-03T11:53:28.305Z,28.27
2023-06-03T11:54:28.376Z,28.27
2023-06-03T11:55:28.431Z,28.27
2023-06-03T11:56:28.490Z,28.27
2023-06-03T11:57:28.561Z,28.26
2023-06-03T11:58:28.629Z,28.27
2023-06-03T11:59:28.690Z,28.29
2023-06-03T12:00:28.735Z,28.25
2023-06-03T12:01:28.813Z,28.25
2023-06-03T12:02:28.940Z,28.26
2023-06-03T12:03:29.028Z,28.27
2023-06-03T12:04:28.973Z,28.22
2023-06-03T12:05:29.186Z,28.26
2023-06-03T12:06:29.106Z,28.26
2023-06-03T12:07:29.177Z,28.27
2023-06-03T12:08:29.227Z,28.26
2023-06-03T12:09:29.281Z,28.25
2023-06-03T12:10:29.366Z,28.29
2023-06-03T12:11:29.404Z,28.22
2023-06-03T12:12:29.469Z,28.31
2023-06-03T12:13:29.535Z,28.27
2023-06-03T12:14:29.612Z,28.26
2023-06-03T12:15:29.684Z,28.19
2023-06-03T12:16:29.786Z,28.24
2023-06-03T12:17:29.816Z,28.26
2023-06-03T12:18:29.870Z,28.27
2023-06-03T12:19:29.917Z,28.23
2023-06-03T12:20:30.040Z,28.22
2023-06-03T12:21:30.041Z,28.25
2023-06-03T12:22:30.111Z,28.20
2023-06-03T12:23:30.254Z,28.23
2023-06-03T12:24:30.235Z,28.19
2023-06-03T12:25:30.309Z,28.16
2023-06-03T12:26:30.372Z,28.24
2023-06-03T12:27:30.466Z,28.16
2023-06-03T12:28:30.491Z,28.20
2023-06-03T12:29:30.549Z,28.20
2023-06-03T12:30:30.611Z,28.22
2023-06-03T12:31:30.764Z,28.19
2023-06-03T12:32:31.177Z,28.20
2023-06-03T12:33:30.808Z,28.20
2023-06-03T12:34:30.836Z,28.18
2023-06-03T12:35:30.889Z,28.24
2023-06-03T12:36:30.948Z,28.18
2023-06-03T12:37:31.016Z,28.16
2023-06-03T12:38:31.063Z,28.14
2023-06-03T12:39:31.130Z,28.12
2023-06-03T12:40:31.191Z,28.08
2023-06-03T12:41:31.250Z,28.14
2023-06-03T12:42:31.335Z,28.14
2023-06-03T12:43:31.379Z,28.11
2023-06-03T12:44:31.432Z,28.12
2023-06-03T12:45:31.502Z,28.06
2023-06-03T12:46:31.613Z,28.07
2023-06-03T12:47:31.648Z,28.06
2023-06-03T12:48:31.829Z,28.08
2023-06-03T12:49:31.736Z,28.04
2023-06-03T12:50:31.829Z,28.07
2023-06-03T12:51:31.850Z,28.07
2023-06-03T12:52:31.896Z,28.03
2023-06-03T12:53:31.955Z,28.08